Time;durP1;ratioP1;P1;durP2;ratioP2;P2;SDS_P1;SDS_P2;PMS_P1;PMS_P2;Temp;Humidity;BMP_temperature;BMP_pressure;BME280_temperature;BME280_humidity;BME280_pressure;Samples;Min_cycle;Max_cycle;Signal;HPM_P1;HPM_P2
2021/12/15 00:01:22;;;;;;;0.10;0.10;;;;;;;8.35;88.57;102985.50;5021018;28;20076;-72
2021/12/15 00:03:48;;;;;;;0.13;0.13;;;;;;;8.37;88.64;102983.00;5020468;28;20018;-73
2021/12/15 00:06:17;;;;;;;0.10;0.10;;;;;;;8.41;88.74;102979.78;5003025;28;20091;-74
2021/12/15 00:08:46;;;;;;;0.10;0.10;;;;;;;8.37;88.64;102986.53;5019676;28;20053;-73
2021/12/15 00:11:12;;;;;;;0.20;0.20;;;;;;;8.36;88.70;102983.81;5019485;28;20402;-75
2021/12/15 00:13:39;;;;;;;0.10;0.10;;;;;;;8.33;88.89;102983.56;5019767;28;20108;-75
2021/12/15 00:16:09;;;;;;;0.10;0.10;;;;;;;8.38;88.54;102985.72;5020304;28;20033;-72
2021/12/15 00:18:35;;;;;;;0.10;0.10;;;;;;;8.37;88.56;102983.91;5003252;28;20029;-73
2021/12/15 00:21:02;;;;;;;0.20;0.20;;;;;;;8.35;88.64;102980.28;5020280;28;20109;-72
2021/12/15 00:23:28;;;;;;;0.20;0.20;;;;;;;8.37;88.62;102978.69;5018488;28;20112;-74
2021/12/15 00:25:53;;;;;;;0.63;0.20;;;;;;;8.34;88.52;102980.19;5020317;28;20448;-74
2021/12/15 00:28:19;;;;;;;0.00;0.00;;;;;;;8.34;88.66;102978.47;5019162;28;20034;-73
2021/12/15 00:30:44;;;;;;;0.23;0.23;;;;;;;8.34;88.49;102978.47;5019167;28;20053;-74
2021/12/15 00:33:11;;;;;;;0.10;0.10;;;;;;;8.33;88.46;102981.88;5019107;28;20293;-72
2021/12/15 00:35:36;;;;;;;0.10;0.10;;;;;;;8.32;88.36;102974.84;5019678;28;20079;-74
2021/12/15 00:38:03;;;;;;;0.10;0.10;;;;;;;8.30;88.55;102975.53;5019104;28;20323;-74
2021/12/15 00:40:29;;;;;;;0.47;0.20;;;;;;;8.30;88.56;102978.13;5018340;28;20068;-72
2021/12/15 00:42:56;;;;;;;0.10;0.10;;;;;;;8.28;88.43;102977.13;5018864;28;20080;-74
2021/12/15 00:45:22;;;;;;;0.10;0.10;;;;;;;8.27;88.70;102978.81;5019401;28;20029;-74
2021/12/15 00:47:47;;;;;;;0.00;0.00;;;;;;;8.27;88.75;102977.91;5019352;28;20026;-73
2021/12/15 00:50:15;;;;;;;0.10;0.10;;;;;;;8.25;88.56;102977.81;5019551;28;20022;-74
2021/12/15 00:52:43;;;;;;;0.20;0.20;;;;;;;8.24;88.58;102984.72;5019078;28;20033;-73
2021/12/15 00:55:13;;;;;;;0.40;0.40;;;;;;;8.26;88.78;102979.63;5019024;28;20424;-75
2021/12/15 00:57:39;;;;;;;0.20;0.20;;;;;;;8.30;88.79;102981.66;5018558;28;20087;-74
2021/12/15 01:00:10;;;;;;;0.10;0.10;;;;;;;8.33;88.34;102976.66;5019301;28;20312;-74
2021/12/15 01:02:36;;;;;;;0.20;0.20;;;;;;;8.33;88.32;102968.81;5018964;28;20024;-73
2021/12/15 01:05:01;;;;;;;0.17;0.17;;;;;;;8.35;88.31;102972.44;5018646;28;20033;-74
2021/12/15 01:07:27;;;;;;;0.10;0.10;;;;;;;8.34;88.22;102977.56;5019295;28;20030;-78
2021/12/15 01:09:56;;;;;;;0.40;0.40;;;;;;;8.35;88.57;102975.03;5018268;28;20033;-75
2021/12/15 01:20:53;;;;;;;0.10;0.10;;;;;;;8.30;88.26;102981.66;5018555;28;20098;-74
2021/12/15 01:23:22;;;;;;;0.43;0.43;;;;;;;8.31;88.39;102982.56;5018415;28;20300;-75
2021/12/15 01:25:55;;;;;;;0.07;0.07;;;;;;;8.27;88.45;102980.53;5050591;28;20068;-74
2021/12/15 01:28:22;;;;;;;0.20;0.20;;;;;;;8.28;88.45;102978.00;5018300;28;20032;-74
2021/12/15 01:30:48;;;;;;;0.20;0.20;;;;;;;8.28;88.44;102987.56;5018552;28;20113;-73
2021/12/15 01:33:14;;;;;;;0.20;0.20;;;;;;;8.25;88.50;102981.34;5017977;28;20068;-73
2021/12/15 01:35:43;;;;;;;0.47;0.47;;;;;;;8.28;88.64;102980.63;5018585;28;20037;-75
2021/12/15 01:38:09;;;;;;;0.10;0.10;;;;;;;8.29;88.34;102974.59;5033895;28;20029;-74
2021/12/15 01:40:38;;;;;;;3.23;0.40;;;;;;;8.30;88.33;102980.75;5018208;28;20100;-73
2021/12/15 01:43:23;;;;;;;0.10;0.10;;;;;;;8.25;88.38;102988.25;5018419;28;20108;-74
2021/12/15 01:48:41;;;;;;;0.00;0.00;;;;;;;8.32;88.30;102982.66;5017779;28;20048;-74
2021/12/15 01:51:10;;;;;;;0.37;0.37;;;;;;;8.32;88.25;102979.13;5018093;28;20045;-73
2021/12/15 01:53:35;;;;;;;0.37;0.37;;;;;;;8.31;88.16;102991.31;5017218;28;20026;-73
2021/12/15 01:56:03;;;;;;;0.40;0.20;;;;;;;8.29;88.32;102995.47;5018162;28;20299;-74
2021/12/15 01:58:29;;;;;;;0.00;0.00;;;;;;;8.32;88.28;103000.94;5017669;28;20018;-75
2021/12/15 02:00:58;;;;;;;0.20;0.20;;;;;;;8.32;88.37;102998.34;5018452;28;20265;-72
2021/12/15 02:03:24;;;;;;;0.10;0.10;;;;;;;8.30;88.22;102999.00;5017201;28;20054;-73
2021/12/15 02:05:49;;;;;;;0.77;0.40;;;;;;;8.29;88.41;103005.91;5017752;28;20108;-72
2021/12/15 02:08:15;;;;;;;0.53;0.30;;;;;;;8.27;88.30;103010.13;5017402;28;20045;-72
2021/12/15 02:10:42;;;;;;;0.00;0.00;;;;;;;8.29;88.36;103008.53;5017117;28;20092;-74
2021/12/15 02:13:10;;;;;;;0.07;0.07;;;;;;;8.29;88.30;103010.25;5017516;28;20032;-74
2021/12/15 02:15:41;;;;;;;0.10;0.10;;;;;;;8.29;88.02;103007.66;5050303;28;20022;-73
2021/12/15 02:18:10;;;;;;;0.20;0.20;;;;;;;8.28;88.42;103009.34;5017272;28;20069;-73
2021/12/15 02:20:39;;;;;;;0.10;0.10;;;;;;;8.30;88.99;103012.06;5017577;28;20045;-74
2021/12/15 02:23:07;;;;;;;0.30;0.30;;;;;;;8.32;88.39;103008.78;5017583;28;20101;-72
2021/12/15 02:25:32;;;;;;;0.00;0.00;;;;;;;8.30;88.39;103014.69;5017771;28;20052;-74
2021/12/15 02:27:59;;;;;;;0.17;0.17;;;;;;;8.32;88.34;103006.16;5017700;28;20030;-73
2021/12/15 02:33:12;;;;;;;0.43;0.35;;;;;;;8.35;88.27;103013.31;5017663;28;20036;-74
2021/12/15 02:38:32;;;;;;;0.27;0.27;;;;;;;8.31;87.97;103012.19;5017645;28;20053;-74
2021/12/15 02:41:05;;;;;;;0.10;0.10;;;;;;;8.33;88.45;103014.88;5016967;28;20089;-74
2021/12/15 02:43:31;;;;;;;0.00;0.00;;;;;;;8.33;88.21;103014.88;5017048;28;20284;-73
2021/12/15 02:45:57;;;;;;;0.00;0.00;;;;;;;8.32;88.30;103014.00;5017621;28;20026;-71
2021/12/15 02:48:22;;;;;;;0.00;0.00;;;;;;;8.33;88.32;103010.59;5016326;28;20030;-73
2021/12/15 02:50:48;;;;;;;0.00;0.00;;;;;;;8.32;88.44;103000.94;5017520;28;20440;-74
2021/12/15 02:53:13;;;;;;;0.10;0.10;;;;;;;8.32;88.31;103011.38;5016824;28;20053;-74
2021/12/15 02:55:39;;;;;;;0.10;0.10;;;;;;;8.33;88.25;103005.38;5017384;28;20034;-73
2021/12/15 02:58:04;;;;;;;0.10;0.10;;;;;;;8.34;88.30;103003.69;5022643;28;20288;-75
2021/12/15 03:00:45;;;;;;;0.00;0.00;;;;;;;8.36;88.25;103012.50;5023962;28;20037;-73
2021/12/15 03:06:04;;;;;;;0.10;0.10;;;;;;;8.39;88.25;103008.44;5024174;28;20123;-71
2021/12/15 03:08:50;;;;;;;0.20;0.20;;;;;;;8.39;87.97;103010.13;5023861;28;20026;-72
2021/12/15 03:16:45;;;;;;;0.00;0.00;;;;;;;8.40;88.02;103006.69;5023424;28;20044;-73
2021/12/15 03:19:10;;;;;;;0.10;0.10;;;;;;;8.36;88.26;103008.19;5023274;28;20026;-72
2021/12/15 03:21:36;;;;;;;0.13;0.13;;;;;;;8.38;88.02;103011.84;5023792;28;20044;-72
2021/12/15 03:24:17;;;;;;;0.10;0.10;;;;;;;8.38;87.96;103016.13;5023538;28;20030;-72
2021/12/15 03:26:51;;;;;;;0.00;0.00;;;;;;;8.38;88.08;103016.13;5024144;28;20296;-73
2021/12/15 03:37:28;;;;;;;0.10;0.10;;;;;;;8.37;88.10;103012.63;5022524;28;20048;-74
2021/12/15 03:39:56;;;;;;;0.00;0.00;;;;;;;8.39;88.01;103017.94;5023674;28;20388;-72
2021/12/15 03:42:29;;;;;;;0.10;0.10;;;;;;;8.40;87.99;103014.53;5023167;28;20026;-73
2021/12/15 03:44:56;;;;;;;0.10;0.10;;;;;;;8.41;88.06;103021.56;5023165;28;20025;-73
2021/12/15 03:47:26;;;;;;;0.17;0.17;;;;;;;8.44;88.05;103020.88;5023413;28;20319;-72
2021/12/15 03:49:54;;;;;;;0.10;0.10;;;;;;;8.41;87.97;103018.06;5023671;28;20034;-73
2021/12/15 03:52:20;;;;;;;0.10;0.10;;;;;;;8.37;88.10;103025.69;5023182;28;20438;-70
2021/12/15 03:54:45;;;;;;;0.10;0.10;;;;;;;8.37;88.12;103023.09;5023294;28;20026;-72
2021/12/15 03:57:11;;;;;;;0.10;0.10;;;;;;;8.38;87.86;103029.19;5023441;28;20072;-73
2021/12/15 03:59:41;;;;;;;0.20;0.20;;;;;;;8.41;87.69;103021.56;5023180;28;20030;-70
2021/12/15 04:02:07;;;;;;;0.10;0.10;;;;;;;8.41;88.17;103026.78;5023016;28;20029;-71
2021/12/15 04:04:32;;;;;;;0.07;0.07;;;;;;;8.41;88.08;103023.28;5023136;28;20026;-71
2021/12/15 04:06:58;;;;;;;0.10;0.10;;;;;;;8.43;87.89;103030.44;5023440;28;20036;-72
2021/12/15 04:09:23;;;;;;;0.10;0.10;;;;;;;8.43;88.02;103032.13;5013831;28;20049;-72
2021/12/15 04:11:49;;;;;;;0.00;0.00;;;;;;;8.47;88.07;103031.56;5000225;28;20042;-72
2021/12/15 04:14:22;;;;;;;0.10;0.10;;;;;;;8.51;87.92;103036.25;5015213;28;20030;-71
2021/12/15 04:17:00;;;;;;;0.20;0.20;;;;;;;8.55;87.84;103034.75;4999687;28;20030;-71
2021/12/15 04:19:26;;;;;;;0.10;0.10;;;;;;;8.55;87.72;103038.28;5000008;28;20037;-71
2021/12/15 04:21:52;;;;;;;0.17;0.17;;;;;;;8.51;87.77;103033.63;5000601;28;20377;-72
2021/12/15 04:24:18;;;;;;;0.10;0.10;;;;;;;8.56;87.76;103036.56;5014726;28;20044;-72
2021/12/15 04:26:45;;;;;;;0.23;0.23;;;;;;;8.54;87.90;103035.56;5019654;28;20037;-72
2021/12/15 04:29:11;;;;;;;0.10;0.10;;;;;;;8.51;87.90;103036.25;5019512;28;20026;-71
2021/12/15 04:31:39;;;;;;;0.20;0.20;;;;;;;8.54;87.83;103035.56;5019583;28;20029;-72
2021/12/15 04:34:10;;;;;;;0.13;0.13;;;;;;;8.54;87.88;103033.88;5019964;28;20408;-72
2021/12/15 04:36:41;;;;;;;0.10;0.10;;;;;;;8.52;87.79;103036.34;5018973;28;20160;-72
2021/12/15 04:39:11;;;;;;;0.20;0.20;;;;;;;8.53;87.36;103037.25;5019449;28;20442;-72
2021/12/15 04:41:36;;;;;;;0.20;0.20;;;;;;;8.51;87.92;103036.25;5017995;28;20037;-72
2021/12/15 04:44:10;;;;;;;0.17;0.17;;;;;;;8.50;88.04;103035.31;5018997;28;20052;-71
2021/12/15 04:46:38;;;;;;;0.00;0.00;;;;;;;8.48;88.12;103039.50;5019440;28;20164;-71
2021/12/15 04:49:06;;;;;;;0.10;0.10;;;;;;;8.52;88.18;103036.34;5019268;28;20057;-72
2021/12/15 04:51:31;;;;;;;0.20;0.20;;;;;;;8.51;88.16;103039.78;5018587;28;20022;-71
2021/12/15 04:53:58;;;;;;;0.00;0.00;;;;;;;8.50;88.09;103048.38;5018252;28;20335;-72
2021/12/15 04:56:25;;;;;;;0.27;0.27;;;;;;;8.51;88.19;103039.78;5019512;28;20108;-71
2021/12/15 04:58:52;;;;;;;0.10;0.10;;;;;;;8.52;88.08;103035.44;5018774;28;20030;-70
2021/12/15 05:01:18;;;;;;;0.10;0.10;;;;;;;8.51;88.09;103036.25;5019266;28;20045;-72
2021/12/15 05:03:46;;;;;;;0.30;0.30;;;;;;;8.54;88.04;103035.56;5018971;28;20041;-72
2021/12/15 05:06:11;;;;;;;0.00;0.00;;;;;;;8.54;87.92;103038.16;5018655;28;20038;-71
2021/12/15 05:08:38;;;;;;;0.10;0.10;;;;;;;8.51;87.75;103044.06;5017866;28;20033;-71
2021/12/15 05:11:05;;;;;;;0.20;0.20;;;;;;;8.54;88.15;103049.53;5018808;28;20061;-72
2021/12/15 05:13:31;;;;;;;0.10;0.10;;;;;;;8.54;87.98;103053.84;5018175;28;20030;-71
2021/12/15 05:15:58;;;;;;;0.10;0.10;;;;;;;8.58;87.90;103053.28;5018992;28;20026;-71
2021/12/15 05:18:24;;;;;;;0.20;0.20;;;;;;;8.53;87.84;103045.06;5018346;28;20033;-71
2021/12/15 05:20:52;;;;;;;0.10;0.10;;;;;;;8.59;87.92;103049.88;5018803;28;20036;-71
2021/12/15 05:23:18;;;;;;;0.10;0.10;;;;;;;8.55;87.96;103051.34;5018457;28;20025;-71
2021/12/15 05:25:45;;;;;;;0.20;0.20;;;;;;;8.53;87.85;103045.06;5017894;28;20044;-71
2021/12/15 05:28:10;;;;;;;0.20;0.20;;;;;;;8.51;87.85;103045.00;5018072;28;20464;-70
2021/12/15 05:30:36;;;;;;;0.00;0.00;;;;;;;8.54;87.93;103051.22;5018749;28;20037;-71
2021/12/15 05:33:01;;;;;;;0.13;0.13;;;;;;;8.52;87.92;103051.09;5018522;28;20041;-71
2021/12/15 05:35:27;;;;;;;0.10;0.10;;;;;;;8.55;87.64;103056.56;5017953;28;20038;-71
2021/12/15 05:37:57;;;;;;;0.23;0.23;;;;;;;8.52;88.01;103052.03;5018251;28;20034;-70
2021/12/15 05:40:23;;;;;;;0.20;0.20;;;;;;;8.50;88.10;103053.59;5017537;28;20288;-70
2021/12/15 05:42:49;;;;;;;0.23;0.23;;;;;;;8.52;88.04;103061.53;5017732;28;20367;-71
2021/12/15 05:45:14;;;;;;;0.10;0.10;;;;;;;8.49;88.05;103051.78;5018539;28;20108;-71
2021/12/15 05:47:41;;;;;;;0.10;0.10;;;;;;;8.51;88.16;103055.44;5018028;28;20026;-70
2021/12/15 05:50:09;;;;;;;0.10;0.10;;;;;;;8.49;88.12;103054.41;5017345;28;20292;-70
2021/12/15 05:52:35;;;;;;;0.20;0.20;;;;;;;8.49;87.99;103063.91;5017394;28;20343;-71
2021/12/15 05:55:01;;;;;;;0.30;0.30;;;;;;;8.53;88.19;103063.34;5018346;28;20379;-71
2021/12/15 05:57:27;;;;;;;0.10;0.10;;;;;;;8.51;88.06;103062.34;5016985;28;20034;-73
2021/12/15 05:59:52;;;;;;;0.10;0.10;;;;;;;8.48;87.70;103062.09;5017180;28;20026;-71
2021/12/15 06:02:18;;;;;;;0.10;0.10;;;;;;;8.47;88.26;103061.19;5018031;28;20088;-71
2021/12/15 06:04:43;;;;;;;0.10;0.10;;;;;;;8.48;88.39;103065.59;5017875;28;20040;-71
2021/12/15 06:07:08;;;;;;;0.10;0.10;;;;;;;8.51;88.24;103055.44;5017807;28;20193;-71
2021/12/15 06:09:34;;;;;;;0.10;0.10;;;;;;;8.52;88.26;103057.25;5017150;28;20034;-71
2021/12/15 06:12:01;;;;;;;0.10;0.10;;;;;;;8.56;88.14;103061.00;5017240;28;20029;-71
2021/12/15 06:14:28;;;;;;;0.10;0.10;;;;;;;8.51;88.12;103060.66;5017025;28;20030;-72
2021/12/15 06:16:57;;;;;;;0.10;0.10;;;;;;;8.54;88.14;103062.59;5017573;28;20020;-71
2021/12/15 06:19:23;;;;;;;0.07;0.07;;;;;;;8.50;88.57;103065.72;5017000;28;20030;-72
2021/12/15 06:21:48;;;;;;;0.10;0.10;;;;;;;8.49;88.21;103064.84;5016480;28;20042;-71
2021/12/15 06:24:14;;;;;;;0.10;0.10;;;;;;;8.52;88.35;103070.31;5016607;28;20036;-71
2021/12/15 06:26:39;;;;;;;0.10;0.10;;;;;;;8.50;88.26;103063.13;5016019;28;20436;-69
2021/12/15 06:29:05;;;;;;;0.00;0.00;;;;;;;8.55;88.21;103076.53;5015474;28;20033;-71
2021/12/15 06:31:30;;;;;;;0.10;0.10;;;;;;;8.56;88.18;103073.13;5015336;28;20038;-71
2021/12/15 06:33:56;;;;;;;0.00;0.00;;;;;;;8.53;88.41;103081.63;5015806;28;20065;-71
2021/12/15 06:36:21;;;;;;;0.30;0.30;;;;;;;8.54;88.21;103080.88;5016521;28;20025;-73
2021/12/15 06:38:49;;;;;;;0.10;0.10;;;;;;;8.54;88.47;103079.94;5016017;28;20033;-71
2021/12/15 06:41:15;;;;;;;0.07;0.07;;;;;;;8.55;88.25;103085.28;5016585;28;20080;-71
2021/12/15 06:43:48;;;;;;;5.30;1.30;;;;;;;8.57;88.23;103081.09;5015080;28;20121;-70
2021/12/15 06:59:46;;;;;;;0.00;0.00;;;;;;;8.58;88.15;103102.91;5006810;28;20080;-71
2021/12/15 07:02:13;;;;;;;0.10;0.10;;;;;;;8.58;88.15;103097.69;5017446;28;20376;-70
2021/12/15 07:04:39;;;;;;;0.30;0.30;;;;;;;8.57;88.12;103103.66;5016378;28;20026;-71
2021/12/15 07:07:04;;;;;;;0.10;0.10;;;;;;;8.57;88.08;103099.38;5017476;28;20030;-70
2021/12/15 07:09:31;;;;;;;0.07;0.07;;;;;;;8.60;88.20;103106.53;5016725;28;20021;-71
2021/12/15 07:11:57;;;;;;;0.10;0.10;;;;;;;8.55;88.30;103106.19;5017104;28;20033;-70
2021/12/15 07:14:22;;;;;;;0.10;0.10;;;;;;;8.58;88.38;103105.50;5015865;28;20037;-71
2021/12/15 07:16:51;;;;;;;0.00;0.00;;;;;;;8.56;88.42;103110.59;5016972;28;20026;-71
2021/12/15 07:21:51;;;;;;;0.10;0.10;;;;;;;8.56;88.33;103104.47;5017115;28;20367;-71
2021/12/15 07:24:17;;;;;;;0.15;0.15;;;;;;;8.58;88.48;103100.28;5031568;28;20026;-71
2021/12/15 07:26:43;;;;;;;0.40;0.40;;;;;;;8.62;88.43;103110.16;5016349;28;20407;-71
2021/12/15 07:29:08;;;;;;;0.43;0.43;;;;;;;8.61;88.29;103106.59;5016540;28;20025;-71
2021/12/15 07:31:34;;;;;;;0.10;0.10;;;;;;;8.68;88.27;103109.66;5016509;28;20026;-71
2021/12/15 07:34:00;;;;;;;0.20;0.20;;;;;;;8.68;88.20;103118.44;5016954;28;20113;-71
2021/12/15 07:36:25;;;;;;;0.10;0.10;;;;;;;8.65;88.08;103112.97;5016642;28;20260;-70
2021/12/15 07:38:52;;;;;;;0.10;0.10;;;;;;;8.67;88.14;103111.41;5016452;28;20092;-71
2021/12/15 07:41:48;;;;;;;0.10;0.10;;;;;;;8.61;88.35;103110.94;5016931;28;20101;-70
2021/12/15 07:44:04;;;;;;;0.10;0.10;;;;;;;8.61;88.30;103110.94;5017623;28;20300;-70
2021/12/15 07:46:30;;;;;;;0.10;0.10;;;;;;;8.61;88.18;103116.16;5020470;28;20040;-71
2021/12/15 07:48:56;;;;;;;0.20;0.20;;;;;;;8.62;88.33;103117.97;5019210;28;20112;-71
2021/12/15 07:51:21;;;;;;;0.40;0.40;;;;;;;8.64;88.45;103108.53;5020251;28;20117;-71
2021/12/15 07:53:47;;;;;;;0.93;0.93;;;;;;;8.63;88.43;103118.09;5019696;28;20399;-71
2021/12/15 07:56:13;;;;;;;0.10;0.10;;;;;;;8.64;87.95;103119.00;5020523;28;20092;-71
2021/12/15 07:58:39;;;;;;;0.10;0.10;;;;;;;8.64;88.35;103121.59;5001395;28;20061;-71
2021/12/15 08:01:05;;;;;;;0.20;0.20;;;;;;;8.61;88.36;103124.88;5000600;28;20283;-72
2021/12/15 08:03:33;;;;;;;0.20;0.20;;;;;;;8.60;88.37;103123.06;4999492;28;20113;-72
2021/12/15 08:05:59;;;;;;;0.13;0.13;;;;;;;8.63;88.51;103127.63;5000496;28;20050;-70
2021/12/15 08:08:24;;;;;;;0.10;0.10;;;;;;;8.61;88.41;103126.63;5000020;28;20445;-71
2021/12/15 08:10:56;;;;;;;0.07;0.07;;;;;;;8.61;88.42;103121.38;5000162;28;20038;-70
2021/12/15 08:13:32;;;;;;;0.10;0.10;;;;;;;8.64;88.48;103126.81;5006071;28;20387;-71
2021/12/15 08:15:58;;;;;;;0.10;0.10;;;;;;;8.64;88.46;103127.75;5020080;28;20038;-70
2021/12/15 08:18:23;;;;;;;0.07;0.07;;;;;;;8.65;88.06;103129.56;5019576;28;20113;-69
2021/12/15 08:20:50;;;;;;;0.17;0.17;;;;;;;8.66;87.65;103136.59;5018992;28;20053;-71
2021/12/15 08:23:17;;;;;;;0.10;0.10;;;;;;;8.66;88.26;103131.38;5019917;28;20021;-71
2021/12/15 08:25:43;;;;;;;0.10;0.10;;;;;;;8.65;88.38;103134.78;5019643;28;20101;-71
2021/12/15 08:28:09;;;;;;;0.10;0.10;;;;;;;8.64;88.41;103143.41;5019302;28;20110;-71
2021/12/15 08:30:35;;;;;;;0.10;0.10;;;;;;;8.69;88.27;103129.78;5018672;28;20046;-71
2021/12/15 08:33:04;;;;;;;0.10;0.10;;;;;;;8.68;88.24;103133.19;5019281;28;20399;-70
2021/12/15 08:35:41;;;;;;;0.10;0.10;;;;;;;8.66;88.21;103136.59;5018762;28;20077;-71
2021/12/15 08:38:07;;;;;;;0.13;0.13;;;;;;;8.68;88.12;103143.63;5019548;28;20038;-70
2021/12/15 08:40:33;;;;;;;0.20;0.20;;;;;;;8.69;88.13;103143.75;5019019;28;20393;-71
2021/12/15 08:42:59;;;;;;;0.20;0.20;;;;;;;8.69;88.22;103151.59;5018909;28;20042;-70
2021/12/15 08:45:25;;;;;;;0.10;0.10;;;;;;;8.78;87.99;103151.38;5018903;28;20030;-71
2021/12/15 08:47:51;;;;;;;0.10;0.10;;;;;;;8.81;87.82;103146.34;5018800;28;20056;-72
2021/12/15 08:50:22;;;;;;;0.20;0.20;;;;;;;8.79;87.81;103146.22;5019410;28;20397;-71
2021/12/15 08:52:47;;;;;;;0.10;0.10;;;;;;;8.78;87.64;103147.03;5018957;28;20037;-72
2021/12/15 08:55:14;;;;;;;0.10;0.10;;;;;;;8.75;87.77;103148.50;5018350;28;20046;-71
2021/12/15 08:57:46;;;;;;;0.17;0.17;;;;;;;8.78;87.80;103148.75;5018684;28;20041;-71
2021/12/15 09:00:12;;;;;;;0.93;0.60;;;;;;;8.78;87.84;103152.25;5019014;28;20030;-71
2021/12/15 09:02:37;;;;;;;0.10;0.10;;;;;;;8.82;87.57;103158.59;5018589;28;20037;-70
2021/12/15 09:05:04;;;;;;;0.10;0.10;;;;;;;8.83;87.43;103164.75;5019215;28;20077;-71
2021/12/15 09:07:30;;;;;;;0.30;0.30;;;;;;;8.83;87.46;103168.25;5018016;28;20045;-71
2021/12/15 09:09:55;;;;;;;0.20;0.20;;;;;;;8.87;87.20;103167.69;5019033;28;20088;-70
2021/12/15 09:12:21;;;;;;;0.10;0.10;;;;;;;8.90;87.22;103167.03;5018479;28;20041;-71
2021/12/15 09:14:46;;;;;;;0.10;0.10;;;;;;;8.88;87.17;103165.97;5018502;28;20412;-71
2021/12/15 09:17:12;;;;;;;0.17;0.17;;;;;;;8.85;87.24;103160.53;5018439;28;20022;-70
2021/12/15 09:19:38;;;;;;;0.20;0.20;;;;;;;8.84;87.46;103172.69;5018039;28;20269;-70
2021/12/15 09:22:04;;;;;;;0.17;0.17;;;;;;;8.84;87.33;103177.91;5001827;28;20053;-70
2021/12/15 09:24:30;;;;;;;0.20;0.20;;;;;;;8.87;86.95;103180.75;5017690;28;20026;-71
2021/12/15 09:26:55;;;;;;;0.30;0.30;;;;;;;8.85;86.91;103182.34;5018859;28;20040;-71
2021/12/15 09:29:21;;;;;;;0.20;0.20;;;;;;;8.88;87.01;103181.66;5050571;28;20129;-71
2021/12/15 09:31:47;;;;;;;0.10;0.10;;;;;;;8.91;86.56;103177.56;5018389;28;20030;-70
2021/12/15 09:34:17;;;;;;;0.10;0.10;;;;;;;8.91;86.64;103185.41;5018380;28;20023;-70
2021/12/15 09:36:45;;;;;;;0.10;0.10;;;;;;;8.93;86.30;103185.53;5017997;28;20087;-71
2021/12/15 09:39:12;;;;;;;0.30;0.30;;;;;;;8.91;86.36;103188.00;5017713;28;20071;-71
2021/12/15 09:41:39;;;;;;;0.10;0.10;;;;;;;8.92;86.25;103188.94;5017928;28;20030;-71
2021/12/15 09:44:10;;;;;;;0.43;0.43;;;;;;;8.90;86.30;103198.38;5018229;28;20360;-71
2021/12/15 09:47:04;;;;;;;0.10;0.10;;;;;;;8.89;86.47;103207.91;5017852;28;20025;-70
2021/12/15 10:03:13;;;;;;;0.20;0.20;;;;;;;8.89;86.39;103220.97;5018238;28;20435;-70
2021/12/15 10:19:46;;;;;;;0.20;0.20;;;;;;;8.89;86.87;103225.28;5017797;28;20041;-72
2021/12/15 10:22:15;;;;;;;0.20;0.20;;;;;;;8.90;86.52;103214.94;5017435;28;20112;-70
2021/12/15 10:25:05;;;;;;;0.17;0.17;;;;;;;8.93;86.54;103211.66;5017267;28;20049;-70
2021/12/15 10:27:35;;;;;;;0.10;0.10;;;;;;;8.96;86.22;103218.81;5017179;28;20033;-70
2021/12/15 10:30:15;;;;;;;0.20;0.20;;;;;;;8.99;86.25;103224.25;5017528;28;20285;-71
2021/12/15 10:32:46;;;;;;;0.10;0.10;;;;;;;9.02;86.18;103227.13;5016528;28;20052;-72
2021/12/15 10:35:51;;;;;;;0.17;0.17;;;;;;;9.03;85.64;103227.19;5017918;28;20032;-71
2021/12/15 10:38:20;;;;;;;0.20;0.20;;;;;;;9.04;85.44;103230.75;4993973;28;20057;-71
2021/12/15 10:40:56;;;;;;;0.30;0.30;;;;;;;9.07;85.11;103226.66;5014900;28;20559;-70
2021/12/15 10:43:24;;;;;;;0.30;0.30;;;;;;;9.13;85.18;103225.25;5014020;28;20065;-71
2021/12/15 10:45:53;;;;;;;0.30;0.30;;;;;;;9.12;84.71;103224.38;5015691;28;20033;-71
2021/12/15 10:48:35;;;;;;;0.17;0.17;;;;;;;9.14;84.68;103224.47;5012698;28;20072;-70
2021/12/15 10:51:25;;;;;;;0.20;0.20;;;;;;;9.15;84.43;103232.41;5013407;28;20093;-71
2021/12/15 10:53:52;;;;;;;0.10;0.10;;;;;;;9.20;84.00;103227.50;4986497;28;20304;-71
2021/12/15 10:56:20;;;;;;;0.20;0.20;;;;;;;9.21;84.01;103224.09;5015890;28;20427;-72
2021/12/15 10:58:52;;;;;;;0.30;0.30;;;;;;;9.23;83.87;103225.13;5015307;28;20029;-71
2021/12/15 11:01:35;;;;;;;0.20;0.20;;;;;;;9.23;83.81;103224.22;5015875;28;20116;-70
2021/12/15 11:04:02;;;;;;;0.30;0.30;;;;;;;9.23;83.61;103232.06;5013594;28;20022;-70
2021/12/15 11:06:33;;;;;;;0.20;0.20;;;;;;;9.24;83.64;103239.09;5015492;28;20104;-70
2021/12/15 11:09:13;;;;;;;0.20;0.20;;;;;;;9.25;83.21;103226.16;5013818;28;20312;-71
2021/12/15 11:11:39;;;;;;;0.30;0.30;;;;;;;9.26;82.96;103217.50;5016867;28;20022;-73
2021/12/15 11:14:34;;;;;;;0.40;0.40;;;;;;;9.26;82.68;103212.28;5015832;28;20041;-71
2021/12/15 11:17:11;;;;;;;0.10;0.10;;;;;;;9.29;82.33;103220.31;5016495;28;20029;-71
2021/12/15 11:19:49;;;;;;;0.30;0.30;;;;;;;9.30;82.11;103222.16;5020041;28;20038;-71
2021/12/15 11:22:52;;;;;;;0.37;0.37;;;;;;;9.28;81.36;103228.09;5021120;28;20029;-71
2021/12/15 11:25:49;;;;;;;0.30;0.30;;;;;;;9.28;81.50;103231.59;5021054;28;20083;-71
2021/12/15 11:28:24;;;;;;;0.30;0.30;;;;;;;9.26;81.65;103230.56;5020269;28;20369;-71
2021/12/15 11:30:58;;;;;;;0.30;0.30;;;;;;;9.25;80.95;103222.63;5019678;28;20076;-72
2021/12/15 11:33:48;;;;;;;0.30;0.30;;;;;;;9.26;81.35;103220.13;5019251;28;20026;-73
2021/12/15 11:36:17;;;;;;;0.30;0.30;;;;;;;9.27;81.10;103227.16;5012423;28;20042;-71
2021/12/15 11:38:52;;;;;;;0.30;0.30;;;;;;;9.31;80.28;103230.91;5019007;28;20026;-71
2021/12/15 11:41:21;;;;;;;0.28;0.28;;;;;;;9.31;80.53;103231.81;5019587;28;20040;-72
2021/12/15 11:43:50;;;;;;;0.30;0.30;;;;;;;9.33;79.14;103235.44;5016384;28;20014;-70
2021/12/15 11:46:21;;;;;;;0.30;0.30;;;;;;;9.35;80.12;103230.34;5020551;28;20022;-72
2021/12/15 11:48:49;;;;;;;0.30;0.30;;;;;;;9.35;79.92;103227.72;5020106;28;20415;-71
2021/12/15 11:51:39;;;;;;;0.30;0.30;;;;;;;9.37;79.76;103222.59;5020030;28;20132;-71
2021/12/15 11:54:15;;;;;;;0.23;0.23;;;;;;;9.39;80.05;103224.53;5016223;28;20116;-71
2021/12/15 11:56:41;;;;;;;0.30;0.30;;;;;;;9.34;80.53;103224.19;5016939;28;20030;-71
2021/12/15 11:59:23;;;;;;;0.30;0.30;;;;;;;9.32;80.77;103219.66;5018500;28;20035;-69
2021/12/15 12:01:58;;;;;;;0.20;0.20;;;;;;;9.33;80.63;103225.00;5016574;28;20013;-71
2021/12/15 12:05:19;;;;;;;0.20;0.20;;;;;;;9.35;80.40;103227.72;5017620;28;20025;-71
2021/12/15 12:07:48;;;;;;;0.33;0.33;;;;;;;9.40;79.82;103221.09;5005811;28;20034;-71
2021/12/15 12:10:19;;;;;;;0.20;0.20;;;;;;;9.40;79.78;103220.22;5017124;28;20041;-71
2021/12/15 12:12:52;;;;;;;0.50;0.50;;;;;;;9.37;79.64;103223.50;5015664;28;20119;-71
2021/12/15 12:15:21;;;;;;;0.40;0.40;;;;;;;9.40;79.67;103220.22;5018788;28;20932;-71
2021/12/15 12:17:48;;;;;;;0.40;0.40;;;;;;;9.40;79.99;103214.97;5016152;28;20022;-72
2021/12/15 12:20:21;;;;;;;0.27;0.27;;;;;;;9.37;81.29;103207.81;5012197;28;20022;-70
2021/12/15 12:22:48;;;;;;;0.20;0.20;;;;;;;9.41;81.28;103209.84;5016118;28;20026;-70
2021/12/15 12:25:38;;;;;;;0.40;0.40;;;;;;;9.40;81.50;103208.03;5018113;28;20108;-72
2021/12/15 12:28:13;;;;;;;0.20;0.20;;;;;;;9.43;81.22;103212.56;5015445;28;20415;-72
2021/12/15 12:30:42;;;;;;;0.40;0.40;;;;;;;9.46;80.92;103208.47;5016871;28;20062;-71
2021/12/15 12:33:10;;;;;;;0.27;0.27;;;;;;;9.43;81.55;103208.25;5017865;28;20107;-71
2021/12/15 12:35:48;;;;;;;0.30;0.30;;;;;;;9.44;81.73;103217.91;5018471;28;20439;-71
2021/12/15 12:38:17;;;;;;;0.30;0.30;;;;;;;9.40;81.96;103210.63;4995726;28;20300;-70
2021/12/15 12:40:52;;;;;;;0.40;0.40;;;;;;;9.38;82.08;103208.72;5017351;28;20053;-72
2021/12/15 12:43:25;;;;;;;0.35;0.35;;;;;;;9.37;82.42;103206.91;5009138;28;20058;-71
2021/12/15 12:46:15;;;;;;;0.20;0.20;;;;;;;9.40;82.31;103209.75;5016355;28;20463;-72
2021/12/15 12:48:58;;;;;;;0.20;0.20;;;;;;;9.42;82.11;103205.53;5012755;28;20096;-71
2021/12/15 13:01:05;;;;;;;0.10;0.10;;;;;;;9.40;82.58;103207.13;5016608;28;20079;-72
2021/12/15 13:03:18;;;;;;;0.40;0.40;;;;;;;9.37;82.23;103199.06;5008819;28;20352;-71
2021/12/15 13:05:53;;;;;;;0.30;0.30;;;;;;;9.40;81.94;103201.91;5007001;28;20042;-72
2021/12/15 13:08:34;;;;;;;0.30;0.30;;;;;;;9.37;82.38;103197.34;5006361;28;20125;-71
2021/12/15 13:11:05;;;;;;;0.30;0.30;;;;;;;9.39;82.41;103195.75;5012268;28;20269;-72